SPME

Details ICAO SPME (TBP)
Name PEDRO CANGA
Region Peru
Timezone America/Lima (UTC-5.0)
Plans Departing 3
Arriving 2
Stats Elevation 115 ft / 35 m (AMSL)
Location -3.552526° -80.381356°
Runways 1
Magnetic Variation 1.519° W
Sunrise 2017-12-12 11:07:05 UTC / 2017-12-12 06:07:05 Local
Sunset 2017-12-12 23:26:30 UTC / 2017-12-12 18:26:30 Local
Advertisement - Login to hide

Runways

ID Width Length Bearing (true) Bearing (mag) Surface Threshold Offset Overrun Length
14 148 ft / 45 m 8,181 ft / 2,494 m 141.44° 142.96° Asphalt 0 ft / 0 m 500 ft / 152 m
32 148 ft / 45 m 8,181 ft / 2,494 m 321.44° 322.96° Asphalt 0 ft / 0 m 500 ft / 152 m

Map

Weather


0- 5 10 15 20 25 30 35+ Temperature / ° C

Clouds and Precipitation
Forecast for 2017-12-13 06:00 UTC. Updated an hour ago

Ground ~20,000 ft ~40,000 ft Winds

METAR

SPME 130200Z 29003KT 9999 OVC012 24/21 Q1013 RMK BIRD HAZARD RWY 32/14 PP000

TAF

TAF SPME 122259Z 1300/1324 32006KT 9999 BKN013 TX28/1319Z TN22/1311Z BECMG 1304/1306 29004KT OVC012 TEMPO 1310/1312 -RA OVC010 BKN070 BECMG 1315/1317 12005KT FEW016 BKN018 BECMG 1320/1322 29011KT

Frequencies

Tower 118.70 MHz TUMBES APP/TWR
Warning: Do not use this data for real-world aviation or navigation. No guarantee of current accuracy is given.